createdAt,value
2023-02-18T00:01:34.232Z,59.38
2023-02-18T00:04:01.431Z,55.40
2023-02-18T00:06:31.040Z,63.83
2023-02-18T00:09:02.317Z,58.42
2023-02-18T00:11:31.991Z,59.50
2023-02-18T00:14:01.778Z,55.60
2023-02-18T00:16:29.861Z,49.72
2023-02-18T00:19:02.686Z,53.03
2023-02-18T00:21:30.479Z,52.42
2023-02-18T00:23:57.473Z,52.17
2023-02-18T00:26:25.004Z,46.92
2023-02-18T00:28:55.491Z,50.53
2023-02-18T00:31:25.130Z,49.10
2023-02-18T00:33:52.761Z,45.50
2023-02-18T00:36:22.666Z,48.25
2023-02-18T00:38:52.436Z,47.90
2023-02-18T00:41:21.065Z,45.17
2023-02-18T00:43:48.411Z,51.53
2023-02-18T00:46:16.252Z,50.75
2023-02-18T00:48:43.456Z,46.63
2023-02-18T00:51:11.140Z,49.08
2023-02-18T00:53:39.674Z,45.20
2023-02-18T00:56:07.771Z,48.58
2023-02-18T00:58:36.346Z,46.00
2023-02-18T01:01:07.546Z,44.33
2023-02-18T01:03:36.253Z,43.85
2023-02-18T01:06:05.446Z,40.45
2023-02-18T01:08:34.249Z,42.80
2023-02-18T01:11:01.313Z,41.47
2023-02-18T01:13:29.680Z,38.45
2023-02-18T01:15:57.191Z,38.85
2023-02-18T01:18:26.320Z,35.95
2023-02-18T01:20:53.679Z,35.22
2023-02-18T01:23:22.806Z,32.92
2023-02-18T01:25:50.260Z,30.20
2023-02-18T01:28:17.460Z,36.20
2023-02-18T01:30:45.133Z,32.95
2023-02-18T01:33:13.259Z,32.25
2023-02-18T01:35:40.949Z,33.47
2023-02-18T01:38:09.667Z,30.27
2023-02-18T01:40:44.207Z,34.53
2023-02-18T01:43:13.451Z,35.43
2023-02-18T01:46:01.143Z,40.47
2023-02-18T01:48:39.171Z,37.72
2023-02-18T01:51:33.647Z,42.25
2023-02-18T01:54:24.850Z,41.55
2023-02-18T01:57:18.269Z,58.00
2023-02-18T02:00:17.175Z,57.17
2023-02-18T02:02:48.271Z,57.65
2023-02-18T02:05:16.011Z,52.97
2023-02-18T02:07:44.652Z,51.58
2023-02-18T02:10:14.176Z,59.92
2023-02-18T02:13:12.077Z,63.50
2023-02-18T02:15:45.761Z,61.22
2023-02-18T02:18:39.438Z,55.22
2023-02-18T02:21:25.400Z,57.30
2023-02-18T02:23:54.290Z,50.45
2023-02-18T02:26:38.586Z,51.33
2023-02-18T02:29:24.440Z,49.20
2023-02-18T02:32:03.628Z,52.13
2023-02-18T02:35:07.951Z,54.38
2023-02-18T02:37:44.072Z,70.32
2023-02-18T02:40:35.350Z,63.25
2023-02-18T02:43:15.161Z,67.72
2023-02-18T02:45:56.937Z,66.53
2023-02-18T02:48:48.768Z,71.97
2023-02-18T02:51:44.250Z,63.63
2023-02-18T02:54:19.357Z,67.72
2023-02-18T02:56:47.114Z,76.63
2023-02-18T02:59:21.880Z,79.13
2023-02-18T03:02:27.922Z,64.93
2023-02-18T03:05:28.351Z,69.50
2023-02-18T03:08:02.095Z,75.07
2023-02-18T03:10:51.830Z,73.65
2023-02-18T03:13:40.665Z,66.55
2023-02-18T03:16:11.044Z,74.18
2023-02-18T03:18:48.438Z,58.63
2023-02-18T03:21:23.829Z,59.67
2023-02-18T03:24:15.706Z,46.78
2023-02-18T03:26:52.497Z,49.35
2023-02-18T03:29:21.727Z,57.50
2023-02-18T03:31:56.785Z,48.05
2023-02-18T03:34:36.774Z,53.63
2023-02-18T03:37:04.336Z,43.90
2023-02-18T03:39:35.356Z,43.22
2023-02-18T03:42:04.520Z,46.25
2023-02-18T03:44:32.344Z,51.95
2023-02-18T03:46:59.302Z,37.00
2023-02-18T03:49:26.288Z,38.45
2023-02-18T03:51:53.425Z,39.42
2023-02-18T03:54:21.109Z,43.92
2023-02-18T03:56:48.184Z,39.67
2023-02-18T03:59:15.413Z,48.15
2023-02-18T04:01:42.434Z,49.47
2023-02-18T04:04:12.782Z,49.17
2023-02-18T04:06:39.833Z,35.45
2023-02-18T04:09:09.172Z,46.45
2023-02-18T04:11:40.920Z,38.03
2023-02-18T04:14:09.125Z,36.78
2023-02-18T04:16:36.217Z,39.33
2023-02-18T04:19:03.505Z,34.38
2023-02-18T04:21:30.938Z,43.63
2023-02-18T04:23:57.923Z,35.88
2023-02-18T04:26:24.916Z,35.08
2023-02-18T04:28:52.397Z,31.77
2023-02-18T04:31:19.915Z,41.17
2023-02-18T04:33:48.182Z,27.27
2023-02-18T04:36:15.076Z,31.05
2023-02-18T04:38:43.991Z,18.65
2023-02-18T04:41:13.051Z,29.90
2023-02-18T04:43:40.037Z,27.83
2023-02-18T04:46:08.661Z,30.23
2023-02-18T04:48:35.895Z,40.58
2023-02-18T04:51:03.953Z,32.28
2023-02-18T04:53:31.425Z,37.63
2023-02-18T04:55:58.455Z,31.98
2023-02-18T04:58:25.849Z,30.02
2023-02-18T05:00:53.941Z,31.80
2023-02-18T05:03:21.398Z,33.70
2023-02-18T05:05:48.431Z,36.92
2023-02-18T05:08:16.627Z,34.13
2023-02-18T05:10:43.818Z,40.03
2023-02-18T05:13:10.897Z,33.50
2023-02-18T05:15:37.823Z,40.53
2023-02-18T05:18:05.187Z,35.45
2023-02-18T05:20:34.549Z,42.60
2023-02-18T05:23:01.803Z,34.65
2023-02-18T05:25:28.708Z,51.45
2023-02-18T05:27:55.789Z,49.75
2023-02-18T05:30:22.770Z,40.33
2023-02-18T05:32:49.879Z,32.30
2023-02-18T05:35:16.923Z,36.95
2023-02-18T05:37:43.974Z,35.03
2023-02-18T05:40:12.229Z,37.90
2023-02-18T05:42:39.328Z,48.05
2023-02-18T05:45:06.551Z,35.60
2023-02-18T05:47:36.077Z,31.80
2023-02-18T05:50:04.246Z,25.20
2023-02-18T05:52:31.183Z,34.88
2023-02-18T05:54:58.278Z,32.38
2023-02-18T05:57:25.765Z,30.10
2023-02-18T05:59:52.794Z,38.38
2023-02-18T06:02:20.111Z,33.08
2023-02-18T06:04:47.093Z,32.20
2023-02-18T06:07:15.577Z,29.48
2023-02-18T06:09:42.590Z,33.47
2023-02-18T06:12:09.621Z,30.33
2023-02-18T06:14:38.076Z,38.00
2023-02-18T06:17:05.333Z,33.33
2023-02-18T06:19:32.317Z,24.42
2023-02-18T06:21:59.573Z,35.70
2023-02-18T06:24:27.100Z,44.25
2023-02-18T06:26:54.084Z,34.33
2023-02-18T06:29:22.086Z,39.25
2023-02-18T06:31:49.285Z,34.75
2023-02-18T06:34:17.046Z,38.58
2023-02-18T06:36:45.473Z,35.08
2023-02-18T06:39:12.798Z,35.80
2023-02-18T06:41:40.642Z,34.95
2023-02-18T06:44:08.342Z,34.42
2023-02-18T06:46:35.849Z,40.25
2023-02-18T06:49:03.210Z,35.05
2023-02-18T06:51:30.426Z,34.95
2023-02-18T06:53:57.436Z,28.00
2023-02-18T06:56:24.779Z,30.67
2023-02-18T06:58:54.737Z,30.77
2023-02-18T07:01:21.966Z,35.50
2023-02-18T07:03:50.280Z,28.48
2023-02-18T07:06:17.592Z,34.42
2023-02-18T07:08:47.604Z,30.33
2023-02-18T07:11:14.894Z,31.80
2023-02-18T07:13:41.945Z,27.90
2023-02-18T07:16:09.378Z,36.30
2023-02-18T07:18:36.504Z,26.45
2023-02-18T07:21:05.269Z,31.63
2023-02-18T07:23:32.430Z,26.55
2023-02-18T07:26:11.141Z,25.05
2023-02-18T07:28:38.440Z,24.85
2023-02-18T07:31:07.092Z,27.67
2023-02-18T07:33:34.481Z,18.70
2023-02-18T07:36:03.771Z,17.98
2023-02-18T07:38:31.547Z,19.23
2023-02-18T07:40:59.881Z,18.45
2023-02-18T07:43:27.104Z,17.67
2023-02-18T07:45:54.998Z,22.33
2023-02-18T07:48:22.252Z,17.92
2023-02-18T07:50:49.259Z,12.85
2023-02-18T07:53:17.117Z,18.90
2023-02-18T07:55:50.206Z,17.00
2023-02-18T07:58:29.150Z,21.92
2023-02-18T08:00:56.501Z,20.00
2023-02-18T08:03:30.624Z,18.63
2023-02-18T08:05:58.845Z,20.17
2023-02-18T08:08:28.399Z,20.05
2023-02-18T08:11:01.044Z,12.75
2023-02-18T08:13:31.813Z,16.92
2023-02-18T08:15:58.935Z,22.08
2023-02-18T08:18:27.128Z,15.77
2023-02-18T08:20:54.288Z,18.92
2023-02-18T08:23:23.716Z,19.20
2023-02-18T08:25:52.619Z,21.05
2023-02-18T08:28:21.878Z,21.80
2023-02-18T08:30:52.006Z,16.77
2023-02-18T08:33:20.557Z,19.55
2023-02-18T08:35:49.187Z,17.63
2023-02-18T08:38:16.391Z,13.82
2023-02-18T08:40:43.406Z,14.48
2023-02-18T08:43:10.878Z,13.82
2023-02-18T08:45:44.269Z,15.25
2023-02-18T08:48:18.620Z,21.95
2023-02-18T08:50:48.333Z,12.30
2023-02-18T08:53:15.766Z,15.40
2023-02-18T08:55:43.401Z,14.40
2023-02-18T08:58:10.718Z,18.20
2023-02-18T09:00:38.710Z,13.40
2023-02-18T09:03:06.226Z,13.95
2023-02-18T09:05:33.302Z,19.73
2023-02-18T09:08:00.186Z,11.65
2023-02-18T09:10:27.163Z,17.95
2023-02-18T09:12:54.222Z,16.15
2023-02-18T09:15:21.708Z,13.57
2023-02-18T09:17:49.427Z,13.30
2023-02-18T09:20:16.658Z,14.82
2023-02-18T09:22:43.615Z,24.48
2023-02-18T09:25:10.780Z,15.70
2023-02-18T09:27:38.198Z,18.48
2023-02-18T09:30:06.536Z,22.08
2023-02-18T09:32:35.186Z,18.42
2023-02-18T09:35:04.217Z,17.90
2023-02-18T09:37:31.580Z,18.50
2023-02-18T09:40:00.268Z,20.40
2023-02-18T09:42:35.177Z,23.40
2023-02-18T09:45:07.404Z,25.25
2023-02-18T09:47:41.414Z,20.33
2023-02-18T09:50:30.781Z,17.00
2023-02-18T09:53:03.309Z,17.13
2023-02-18T09:55:36.370Z,16.10
2023-02-18T09:58:10.074Z,18.00
2023-02-18T10:00:43.470Z,20.95
2023-02-18T10:03:20.403Z,18.63
2023-02-18T10:06:10.076Z,16.65
2023-02-18T10:08:43.002Z,16.75
2023-02-18T10:11:18.571Z,12.77
2023-02-18T10:13:46.107Z,16.67
2023-02-18T10:16:17.850Z,19.20
2023-02-18T10:18:49.888Z,18.30
2023-02-18T10:21:21.120Z,19.77
2023-02-18T10:24:02.068Z,17.52
2023-02-18T10:26:31.625Z,19.73
2023-02-18T10:28:59.417Z,24.13
2023-02-18T10:31:34.333Z,19.45
2023-02-18T10:34:09.615Z,24.02
2023-02-18T10:36:42.696Z,18.75
2023-02-18T10:39:34.591Z,25.83
2023-02-18T10:42:29.668Z,26.60
2023-02-18T10:45:26.839Z,21.58
2023-02-18T10:48:22.353Z,26.65
2023-02-18T10:50:50.018Z,21.63
2023-02-18T10:53:39.153Z,20.02
2023-02-18T10:56:07.538Z,23.08
2023-02-18T10:58:46.206Z,23.05
2023-02-18T11:01:20.119Z,20.25
2023-02-18T11:03:50.297Z,18.67
2023-02-18T11:06:39.079Z,19.13
2023-02-18T11:09:07.215Z,20.83
2023-02-18T11:11:40.061Z,30.58
2023-02-18T11:14:08.915Z,25.50
2023-02-18T11:16:43.645Z,27.05
2023-02-18T11:19:36.243Z,21.73
2023-02-18T11:22:19.608Z,24.80
2023-02-18T11:24:50.616Z,16.95
2023-02-18T11:27:21.337Z,20.52
2023-02-18T11:29:52.546Z,29.42
2023-02-18T11:32:19.870Z,22.80
2023-02-18T11:34:49.379Z,25.90
2023-02-18T11:37:22.061Z,22.65
2023-02-18T11:39:53.062Z,19.90
2023-02-18T11:42:23.084Z,26.40
2023-02-18T11:44:56.599Z,26.42
2023-02-18T11:47:37.685Z,21.75
2023-02-18T11:50:10.454Z,21.00
2023-02-18T11:52:44.011Z,27.23
2023-02-18T11:55:20.942Z,19.65
2023-02-18T11:58:10.691Z,23.58
2023-02-18T12:00:39.943Z,18.95
2023-02-18T12:03:35.429Z,25.77
2023-02-18T12:06:06.307Z,24.23
2023-02-18T12:08:43.586Z,30.20
2023-02-18T12:11:23.441Z,27.40
2023-02-18T12:13:56.824Z,22.27
2023-02-18T12:16:40.708Z,28.58
2023-02-18T12:19:42.646Z,23.38
2023-02-18T12:22:38.258Z,22.65
2023-02-18T12:25:27.253Z,21.70
2023-02-18T12:28:09.719Z,24.70
2023-02-18T12:30:55.456Z,19.63
2023-02-18T12:33:40.087Z,28.30
2023-02-18T12:36:49.261Z,21.25
2023-02-18T12:39:54.197Z,24.58
2023-02-18T12:42:44.994Z,21.30
2023-02-18T12:45:34.240Z,21.45
2023-02-18T12:48:31.950Z,17.77
2023-02-18T12:51:18.005Z,24.00
2023-02-18T12:54:23.134Z,16.73
2023-02-18T12:57:06.444Z,15.13
2023-02-18T13:00:21.016Z,25.67
2023-02-18T13:03:20.756Z,19.65
2023-02-18T13:06:23.338Z,25.52
2023-02-18T13:09:23.298Z,28.40
2023-02-18T13:12:34.199Z,26.02
2023-02-18T13:15:14.062Z,26.50
2023-02-18T13:17:43.222Z,21.65
2023-02-18T13:20:45.224Z,21.10
2023-02-18T13:23:23.328Z,23.77
2023-02-18T13:26:00.787Z,17.90
2023-02-18T13:28:46.220Z,20.17
2023-02-18T13:31:47.454Z,26.45
2023-02-18T13:34:43.046Z,22.85
2023-02-18T13:37:16.366Z,20.70
2023-02-18T13:39:58.981Z,24.55
2023-02-18T13:42:34.516Z,26.17
2023-02-18T13:47:44.937Z,25.60
2023-02-18T13:50:27.295Z,19.50
2023-02-18T13:53:01.412Z,26.05
2023-02-18T13:55:40.641Z,23.58
2023-02-18T13:58:19.886Z,25.88
2023-02-18T14:00:53.705Z,20.50
2023-02-18T14:03:44.393Z,31.33
2023-02-18T14:06:17.865Z,30.27
2023-02-18T14:08:46.406Z,25.63
2023-02-18T14:11:13.773Z,19.90
2023-02-18T14:13:48.914Z,25.08
2023-02-18T14:16:16.452Z,24.52
2023-02-18T14:18:46.133Z,19.77
2023-02-18T14:21:13.142Z,22.75
2023-02-18T14:23:42.254Z,17.92
2023-02-18T14:26:22.187Z,23.50
2023-02-18T14:28:49.363Z,18.83
2023-02-18T14:31:16.370Z,25.98
2023-02-18T14:34:06.727Z,22.58
2023-02-18T14:36:46.158Z,25.42
2023-02-18T14:39:31.426Z,22.90
2023-02-18T14:42:17.507Z,18.20
2023-02-18T14:45:05.439Z,23.25
2023-02-18T14:48:01.446Z,29.98
2023-02-18T14:50:35.485Z,24.13
2023-02-18T14:53:18.802Z,22.70
2023-02-18T14:55:49.947Z,34.58
2023-02-18T14:58:23.031Z,28.95
2023-02-18T15:00:50.218Z,30.98
2023-02-18T15:03:22.463Z,26.38
2023-02-18T15:05:51.560Z,27.85
2023-02-18T15:08:21.636Z,23.52
2023-02-18T15:10:57.167Z,23.85
2023-02-18T15:13:42.719Z,22.52
2023-02-18T15:16:17.100Z,25.52
2023-02-18T15:18:51.856Z,24.50
2023-02-18T15:21:24.814Z,24.37
2023-02-18T15:23:52.398Z,24.95
2023-02-18T15:26:21.386Z,29.58
2023-02-18T15:29:00.431Z,26.65
2023-02-18T15:31:30.151Z,21.98
2023-02-18T15:33:58.022Z,22.42
2023-02-18T15:36:26.771Z,28.40
2023-02-18T15:38:56.646Z,28.70
2023-02-18T15:41:25.256Z,30.65
2023-02-18T15:44:05.986Z,27.67
2023-02-18T15:46:33.455Z,26.73
2023-02-18T15:49:01.370Z,30.73
2023-02-18T15:51:31.076Z,35.75
2023-02-18T15:54:02.778Z,25.45
2023-02-18T15:56:34.104Z,25.98
2023-02-18T15:59:19.767Z,28.67
2023-02-18T16:02:11.819Z,33.42
2023-02-18T16:04:41.507Z,28.52
2023-02-18T16:07:30.576Z,28.55
2023-02-18T16:10:20.284Z,24.30
2023-02-18T16:12:52.751Z,39.67
2023-02-18T16:15:38.643Z,29.58
2023-02-18T16:20:37.585Z,27.55
2023-02-18T16:23:15.169Z,27.92
2023-02-18T16:25:53.664Z,25.88
2023-02-18T16:28:28.689Z,28.80
2023-02-18T16:30:56.090Z,36.58
2023-02-18T16:33:23.381Z,26.38
2023-02-18T16:35:51.219Z,26.13
2023-02-18T16:38:24.253Z,29.40
2023-02-18T16:40:53.573Z,24.88
2023-02-18T16:43:25.914Z,28.88
2023-02-18T16:45:59.174Z,31.25
2023-02-18T16:48:38.651Z,39.42
2023-02-18T16:51:18.159Z,36.58
2023-02-18T16:53:45.753Z,30.17
2023-02-18T16:56:22.104Z,27.40
2023-02-18T16:58:50.726Z,28.48
2023-02-18T17:01:47.129Z,31.23
2023-02-18T17:04:20.107Z,25.48
2023-02-18T17:06:47.632Z,32.70
2023-02-18T17:09:22.215Z,31.73
2023-02-18T17:11:54.681Z,27.07
2023-02-18T17:14:23.141Z,25.38
2023-02-18T17:16:52.888Z,31.63
2023-02-18T17:19:20.654Z,24.08
2023-02-18T17:21:49.169Z,23.17
2023-02-18T17:24:19.044Z,22.35
2023-02-18T17:26:46.704Z,27.00
2023-02-18T17:29:14.096Z,31.13
2023-02-18T17:31:44.804Z,25.35
2023-02-18T17:34:19.353Z,18.25
2023-02-18T17:36:46.511Z,25.10
2023-02-18T17:39:15.752Z,27.98
2023-02-18T17:41:43.555Z,22.27
2023-02-18T17:44:22.399Z,21.77
2023-02-18T17:46:52.518Z,22.70
2023-02-18T17:49:19.645Z,24.85
2023-02-18T17:51:47.456Z,22.63
2023-02-18T17:54:20.344Z,32.67
2023-02-18T17:56:47.512Z,28.38
2023-02-18T17:59:14.622Z,19.10
2023-02-18T18:01:42.676Z,27.45
2023-02-18T18:04:18.781Z,31.75
2023-02-18T18:06:47.032Z,27.13
2023-02-18T18:09:14.208Z,30.58
2023-02-18T18:11:41.448Z,34.67
2023-02-18T18:14:11.847Z,44.35
2023-02-18T18:16:38.875Z,29.65
2023-02-18T18:19:06.087Z,34.20
2023-02-18T18:21:35.179Z,34.65
2023-02-18T18:24:02.853Z,40.47
2023-02-18T18:26:30.421Z,43.08
2023-02-18T18:28:57.456Z,47.78
2023-02-18T18:31:25.939Z,35.40
2023-02-18T18:33:53.854Z,34.40
2023-02-18T18:36:22.313Z,39.67
2023-02-18T18:38:49.569Z,41.03
2023-02-18T18:41:19.408Z,40.42
2023-02-18T18:43:46.770Z,39.20
2023-02-18T18:46:14.140Z,43.03
2023-02-18T18:48:41.502Z,36.85
2023-02-18T18:51:16.297Z,34.53
2023-02-18T18:53:43.657Z,39.88
2023-02-18T18:56:12.588Z,37.50
2023-02-18T18:58:39.999Z,43.03
2023-02-18T19:01:18.247Z,46.17
2023-02-18T19:03:49.218Z,41.00
2023-02-18T19:06:17.694Z,43.65
2023-02-18T19:08:47.933Z,30.80
2023-02-18T19:11:16.024Z,40.97
2023-02-18T19:13:43.502Z,36.47
2023-02-18T19:16:17.264Z,37.88
2023-02-18T19:18:44.829Z,42.00
2023-02-18T19:21:12.730Z,38.75
2023-02-18T19:23:41.741Z,32.83
2023-02-18T19:26:09.285Z,32.97
2023-02-18T19:28:36.588Z,49.88
2023-02-18T19:31:09.790Z,39.05
2023-02-18T19:33:39.384Z,34.20
2023-02-18T19:36:09.534Z,36.33
2023-02-18T19:38:36.862Z,34.40
2023-02-18T19:41:15.028Z,42.35
2023-02-18T19:43:44.138Z,30.25
2023-02-18T19:46:14.576Z,34.40
2023-02-18T19:48:42.533Z,30.23
2023-02-18T19:51:10.370Z,34.15
2023-02-18T19:53:37.975Z,37.75
2023-02-18T19:56:08.007Z,36.42
2023-02-18T19:58:36.405Z,36.47
2023-02-18T20:01:03.834Z,35.80
2023-02-18T20:03:30.971Z,34.60
2023-02-18T20:05:58.179Z,41.78
2023-02-18T20:08:25.242Z,33.65
2023-02-18T20:10:59.101Z,28.85
2023-02-18T20:13:27.055Z,30.40
2023-02-18T20:15:54.108Z,33.67
2023-02-18T20:18:21.565Z,29.23
2023-02-18T20:20:49.573Z,33.58
2023-02-18T20:23:16.524Z,24.48
2023-02-18T20:25:44.143Z,31.98
2023-02-18T20:28:11.225Z,32.35
2023-02-18T20:30:38.423Z,34.38
2023-02-18T20:33:05.859Z,32.70
2023-02-18T20:35:32.794Z,29.77
2023-02-18T20:38:00.054Z,34.35
2023-02-18T20:40:27.950Z,32.63
2023-02-18T20:42:54.972Z,39.40
2023-02-18T20:45:21.935Z,26.67
2023-02-18T20:47:49.418Z,31.00
2023-02-18T20:50:16.494Z,35.95
2023-02-18T20:52:44.376Z,29.70
2023-02-18T20:55:12.136Z,39.38
2023-02-18T20:57:39.717Z,36.53
2023-02-18T21:00:07.804Z,32.72
2023-02-18T21:02:34.858Z,34.22
2023-02-18T21:05:02.032Z,34.55
2023-02-18T21:07:29.287Z,30.85
2023-02-18T21:09:56.316Z,34.20
2023-02-18T21:12:23.261Z,34.83
2023-02-18T21:14:54.129Z,27.23
2023-02-18T21:17:22.371Z,23.85
2023-02-18T21:19:49.344Z,35.05
2023-02-18T21:22:16.442Z,40.75
2023-02-18T21:24:44.027Z,32.20
2023-02-18T21:27:11.129Z,31.23
2023-02-18T21:29:38.383Z,39.50
2023-02-18T21:32:05.754Z,40.55
2023-02-18T21:34:32.865Z,35.40
2023-02-18T21:36:59.821Z,28.20
2023-02-18T21:39:29.198Z,25.90
2023-02-18T21:41:57.331Z,26.38
2023-02-18T21:44:30.028Z,26.38
2023-02-18T21:47:03.633Z,37.00
2023-02-18T21:49:30.596Z,35.05
2023-02-18T21:51:58.244Z,39.10
2023-02-18T21:54:29.782Z,32.10
2023-02-18T21:56:58.155Z,36.15
2023-02-18T21:59:28.825Z,37.13
2023-02-18T22:01:57.474Z,35.80
2023-02-18T22:04:25.342Z,43.47
2023-02-18T22:06:52.736Z,37.97
2023-02-18T22:09:19.739Z,47.88
2023-02-18T22:11:46.767Z,45.63
2023-02-18T22:14:14.780Z,44.95
2023-02-18T22:16:42.558Z,41.17
2023-02-18T22:19:12.012Z,33.83
2023-02-18T22:21:39.546Z,37.28
2023-02-18T22:24:07.724Z,38.85
2023-02-18T22:26:34.808Z,36.30
2023-02-18T22:29:02.164Z,49.45
2023-02-18T22:31:31.139Z,33.92
2023-02-18T22:33:59.644Z,29.90
2023-02-18T22:36:28.150Z,35.67
2023-02-18T22:38:59.007Z,35.60
2023-02-18T22:41:27.672Z,28.77
2023-02-18T22:43:56.727Z,29.77
2023-02-18T22:46:24.103Z,40.83
2023-02-18T22:48:51.403Z,29.20
2023-02-18T22:51:25.150Z,35.78
2023-02-18T22:53:54.164Z,36.15
2023-02-18T22:56:22.500Z,31.63
2023-02-18T22:58:51.130Z,31.52
2023-02-18T23:01:24.130Z,35.88
2023-02-18T23:03:52.399Z,29.67
2023-02-18T23:06:21.253Z,33.85
2023-02-18T23:08:49.058Z,31.23
2023-02-18T23:11:18.487Z,30.63
2023-02-18T23:14:06.663Z,30.08
2023-02-18T23:16:54.578Z,33.83
2023-02-18T23:19:21.964Z,34.17
2023-02-18T23:21:49.139Z,33.63
2023-02-18T23:24:16.442Z,25.08
2023-02-18T23:26:43.632Z,30.75
2023-02-18T23:29:11.023Z,26.55
2023-02-18T23:31:38.295Z,28.60
2023-02-18T23:34:07.122Z,35.20
2023-02-18T23:36:36.113Z,33.70
2023-02-18T23:39:08.430Z,31.27
2023-02-18T23:41:36.710Z,26.85
2023-02-18T23:44:08.488Z,29.95
2023-02-18T23:46:37.320Z,35.30
2023-02-18T23:49:05.300Z,38.10
2023-02-18T23:51:33.284Z,33.85
2023-02-18T23:54:03.537Z,32.47
2023-02-18T23:56:31.022Z,26.38
2023-02-18T23:59:01.978Z,26.25
